Extreme weather reports worldwide

Snow

Station
 
Location
 
Name
 
Wind
Knots
Gust
Knots
Vis
SM
Temp/Dew
C
Baro
inHg
METAR
 
KCPW 26 41 1 -11/-13 29.63 KCPW 290515Z AUTO 22026G41KT 200V260 1SM SN OVC008 M11/M13 A2963 RMK AO2
KMYP 24 31 1.5 -10/-11 29.65 KMYP 290416Z AUTO 25024G31KT 1 1/2SM -SN OVC006 M10/M11 A2965 RMK AO2
KXWA 21 31 8 -11/-14 29.65 KXWA 290451Z AUTO 28021G31KT 8SM -SN OVC016 M11/M14 A2965 RMK AO2 PK WND 28035/0355 UPB38E51SNE37B51 SLP094 P0000 T11111144 $
YIV CYIV Island Lake, CA Island Lake Airport 19 31 3 -6/-8 29.60 CYIV 290515Z AUTO 08019G31KT 3SM -SN FEW034 OVC044 M06/M08 A2960 RMK SLP042
GGW KGGW Glasgow, US Wokal Field/Glasgow-Valley County Airport 21 29 2 -10/-13 29.81 KGGW 290527Z AUTO 30021G29KT 2SM -SN OVC019 M10/M13 A2981 RMK AO2 PK WND 29033/0454 P0000 T11001133

Station
 
Location
 
Name
 
Wind
Knots
Gust
Knots
Vis
SM
Temp/Dew
C
Baro
inHg
METAR
 
YEN CYEN Estevan, CA Estevan Airport 20 29 1.25 -9/-11 29.55 CYEN 290500Z AUTO 28020G29KT 1 1/4SM -SN OVC014 M09/M11 A2955 RMK SLP045
K5SM 18 29 0.25 -8/-10 29.51 K5SM 290515Z AUTO 22018G29KT M1/4SM +SN OVC002 M08/M10 A2951 RMK AO2
OLF KOLF Wolf Point, US L M Clayton Airport 17 29 2.5 -10/-13 29.80 KOLF 290509Z AUTO 28017G29KT 2 1/2SM -SN OVC027 M10/M13 A2980 RMK AO2 PK WND 28029/0506 P0000 T11001133
YFB CYFB Iqaluit, CA Iqaluit Airport 18 28 1.5 -20/-23 29.77 CYFB 290500Z 33018G28KT 1 1/2SM IC BLSN OVC011 M20/M23 A2977 RMK BLSN2SC6 SLP088
YYN CYYN Swift Current, CA Swift Current Airport 22 27 1.25 -13/-15 29.72 CYYN 290506Z AUTO 31022G27KT 1 1/4SM -SN BLSN SCT008 M13/M15 A2972 RMK ICE MISG SLP123
KD50 21 27 7 -11/-14 29.61 KD50 290515Z AUTO 27021G27KT 7SM -SN OVC016 M11/M14 A2961 RMK AO2
YQR CYQR Regina, CA Regina International Airport 21 27 0.63 -9/-11 29.57 CYQR 290500Z 30021G27KT 5/8SM R13/6000FT/D -SN BLSN OVC011 M09/M11 A2957 RMK SN3SC5 VIS VRB 1/2-3/4 SLP054
YRF CYCA Cartwright, CA Cartwright Airport 15 27 6 -6/-8 29.48 CYCA 290509Z AUTO 32015G27KT 6SM -SN OVC048 M06/M08 A2948 RMK SLP985
K06D 18 26 8 -9/-11 29.47 K06D 290515Z AUTO 25018G26KT 8SM -SN BKN016 OVC021 M09/M11 A2947 RMK AO2
YKY CYKY Kindersley, CA Kindersley Airport 18 26 2 -14/-16 29.81 CYKY 290500Z 32018G26KT 2SM BLSN OVC035 M14/M16 A2981 RMK BLSN6SC2 SLP150
K1JW 18 26 7 -4/-6 29.55 K1JW 290455Z AUTO 02018G26KT 7SM -SN OVC010 M04/M06 A2955 RMK AO2 PK WND 03026/26 SNB21E30SNB42 SLP019 P0000 T10431065 FZRANO $
MSO KMSO Missoula, US Missoula International Airport 17 26 2.5 -6/-11 29.76 KMSO 290453Z 11017G26KT 2 1/2SM -SN OVC026 M07/M12 A2976 RMK AO2 PK WND 12027/0414 SNB17E30B43 SLP122 P0000 T10671117
SNY KSNY Sidney, US Sidney Municipal-Lloyd W Carr Field 16 26 8 -3/-6 29.59 KSNY 290453Z AUTO 03016G26KT 8SM -SN OVC010 M04/M07 A2959 RMK AO2 PK WND 03028/0435 SNB53 SLP032 P0000 T10391067
KIBM Kimball, US Kimball Municipal Robert E Arraj Field 14 26 0.75 -6/-7 29.61 KIBM 290515Z AUTO 02014G26KT 3/4SM SN BKN005 OVC012 M06/M08 A2961 RMK AO2 T10651077
CYBU Nipawin, CA Nipawin Airport 19 25 1.25 -7/-9 29.60 CYBU 290500Z AUTO 34019G25KT 1 1/4SM -SN OVC016 M07/M09 A2960 RMK SLP052
YQW CYQW North Battleford, CA North Battleford Airport 18 25 9 -11/-13 29.81 CYQW 290500Z AUTO 32018G25KT 9SM -SN OVC025 M11/M13 A2981 RMK SLP137
YYL CYYL Lynn Lake, CA Lynn Lake Airport 16 25 3 -11/-13 29.94 CYYL 290521Z AUTO 05016G25KT 3SM -SN FEW017 OVC024 M11/M13 A2994 RMK VIS VRB 1 1/2-3 SLP174
FCA KGPI Kalispell, US Glacier Park International Airport 15 25 4 -7/-14 29.80 KGPI 290455Z 02015G25KT 4SM -SN OVC023 M08/M14 A2980 RMK AO2 SNB0358 SLP132 P0000 T10781144
K0CO 12 25 1.25 -12/-13 29.48 K0CO 290515Z AUTO 21012G25KT 171V251 1 1/4SM -SN OVC007 M12/M13 A2948 RMK AO2
YQD CYQD The Pas, CA The Pas Airport 12 25 1 -7/-9 29.58 CYQD 290512Z AUTO 03012G25KT 360V060 1SM -SN VV017 M07/M09 A2958 RMK SLP039
YYC CYYC Calgary, CA Calgary International Airport 19 24 7 -14/-19 29.94 CYYC 290523Z 34019G24KT 7SM -SN OVC053 M14/M19 A2994 RMK SC8 PCPN VRY LGT SLP224
YTH CYTH Thompson, CA Thompson Airport 17 24 3 -9/-11 29.82 CYTH 290500Z 05017G24KT 3SM -SN DRSN VV027 M09/M11 A2982 RMK SN8 SLP120
K1EW 15 23 1.5 -6/-8 29.57 K1EW 290455Z AUTO 19015G23KT 1 1/2SM -SN BR FEW008 FEW013 OVC022 M07/M08 A2957 RMK AO2 SLP044 P0000 T10691080 $
YAY CYAY St. Anthony, CA St. Anthony Airport 17 22 1.25 -2/-3 29.33 CYAY 290500Z AUTO 33017G22KT 1 1/4SM -SN FEW008 OVC014 M02/M03 A2933 RMK SLP936
YQV CYQV Yorkton, CA Yorkton Municipal Airport 16 22 3 -7/-8 29.38 CYQV 290529Z AUTO 31016G22KT 3SM -SN BKN015 OVC022 M07/M08 A2938 RMK SLP982
YQX CYQX Gander, CA Gander International Airport 16 22 20 0/0 29.15 CYQX 290500Z 34016G22KT 20SM -SN OVC002 M00/M00 A2915 RMK SN3ST5 SLP878
YLL CYLL Lloydminster, CA Lloydminster Airport 16 22 3 -13/-16 29.87 CYLL 290510Z AUTO 32016G22KT 3SM -SN OVC039 M13/M16 A2987 RMK SLP172
GRN KGRN Gordon, US Gordon Municipal Airport 18 21 7 -5/-9 29.72 KGRN 290515Z AUTO 02018G21KT 7SM -SN SCT018 BKN024 OVC033 M05/M09 A2972 RMK AO2 T10511092
YVC CYVC La Ronge, CA La Ronge Airport 15 21 3 -8/-11 29.83 CYVC 290500Z 03015G21KT 3SM -SN DRSN VV030 M08/M11 A2983 RMK SN8 SLP134
YXH CYXH Medicine Hat, CA Medicine Hat Airport 14 21 1 -12/-14 29.95 CYXH 290500Z AUTO 30014G21KT 1SM -SN VV013 M12/M14 A2995 RMK SLP193
KTIF Thedford, US Thomas County Airport 14 21 4 -3/-4 29.71 KTIF 290515Z AUTO 01014G21KT 4SM -SN BKN013 BKN022 OVC031 M03/M05 A2971 RMK AO2 T10311048
KSZT Sandpoint, US Sandpoint Airport 14 21 2.5 -5/-7 29.81 KSZT 290515Z AUTO 03014G21KT 2 1/2SM -SN OVC018 M05/M07 A2981 RMK AO2
YQK CYQK Kenora, CA Kenora Airport 13 21 20 -4/-8 29.51 CYQK 290500Z 20013G21KT 20SM -SN DRSN FEW005 OVC018 M04/M08 A2951 RMK SF2SC6 SLP017
YPA CYPA Prince Albert, CA Prince Albert Glass Field 13 21 4 -8/-10 29.69 CYPA 290500Z 36013G21KT 4SM -SN BLSN OVC035 M08/M10 A2969 RMK SN5SC3 SLP086
YQF CYQF Red Deer, CA Red Deer Regional Airport 14 20 9 -14/-19 30.00 CYQF 290500Z AUTO 33014G20KT 9SM -SN BKN046 OVC055 M14/M19 A3000 RMK SLP235
ZSJ CZSJ Sandy Lake, CA Sandy Lake Airport 14 20 1.25 -6/-7 29.57 CZSJ 290524Z AUTO 09014G20KT 1 1/4SM -SN OVC022 M06/M07 A2957 RMK SLP036
YVT CYVT Buffalo Narrows, CA Buffalo Narrows Airport 13 20 6 -10/-13 29.96 CYVT 290528Z AUTO 02013G20KT 6SM -SN OVC046 M10/M13 A2996 RMK SLP183
YMH CYMH Mary's Harbour, CA Mary's Harbour Airport 13 20 1.5 -2/-3 29.37 CYMH 290527Z AUTO 33013G20KT 1 1/2SM -SN FEW008 OVC020 M02/M03 A2937 RMK SLP949
YVP CYVP Kuujjuaq, CA Kuujjuaq Airport 11 20 15 -13/-17 29.80 CYVP 290500Z 29011G20KT 15SM -SN DRSN OVC030 M13/M17 A2980 RMK SC8 SLP096
YPE CYPE Peace River, CA Peace River Airport 10 20 15 -17/-20 30.27 CYPE 290500Z 36010G20KT 15SM -SN BKN016 OVC044 M17/M20 A3027 RMK SC5SC3 SLP306
YHZ CYHZ Halifax, CA Halifax / Stanfield International Airport 13 19 15 0/-1 29.80 CYHZ 290511Z 34013G19KT 15SM -SN OVC012 00/M01 A2980 RMK SC8 PRESRR SLP098
YPL CYPL Pickle Lake, CA Pickle Lake Airport 12 19 9 -6/-8 29.66 CYPL 290525Z AUTO 12012G19KT 9SM -SN BKN014 OVC031 M06/M08 A2966 RMK SLP071
YJT CYJT Stephenville, CA Stephenville Airport 11 19 15 1/-1 29.46 CYJT 290500Z 32011G19KT 15SM -SN SCT021 BKN028 BKN055 01/M01 A2946 RMK SC3SC3SC1 SLP980
YZH CYZH Slave Lake, CA Slave Lake Airport 11 19 9 -14/-17 30.16 CYZH 290500Z AUTO 31011G19KT 9SM -SN OVC020 M14/M17 A3016 RMK SLP263
YNE CYNE Norway House, CA Norway House Airport 9 19 1 -6/-7 29.54 CYNE 290500Z AUTO 05009G19KT 360V100 1SM -SN VV016 M06/M07 A2954 RMK SLP023